Aérodrome :
LOGIN :

S'inscrire | Disclaimer

   EN    FR    IT 

 










Légende :    VFR   VFR Marginal   IFR   IFR Intensif   IFR Très Intensif
Visi : 
Plafond : 
>= 8 km
>= 3000ft
5 à 8 km
1000 à 3000 ft
1500m à 5 km
500 à 1000 ft
800 à 1500m
200 à 500 ft
< 800m
< 200 ft
Symboles :   Orages  Brouillard  Fortes neiges  Fortes précipitations  Vent > 20 kt
SIGMETs :   Divers  Orages  Givrage  Turbulence  Onde Orograph.  Cendres Volcan.






- Altitude de l'aérodrome : 17 ft
- Code IATA : GRQ


EHGG - Groningen Eelde

DERNIER METAR :
  • 091825Z AUTO 18003KT 2500 BR BKN009/// BKN010/// M03/M03 Q1006 BECMG 0800 FZFG VV002

METARs EXPIRÉS :
  • 091755Z AUTO 18003KT 3100 BR SCT009 OVC010 M03/M03 Q1006 BECMG NSC TEMPO 0800 FZFG VV001
  • 091725Z AUTO 24002KT 2500 BR BKN012 M04/M04 Q1006 TEMPO 0800 FZFG VV001
  • 091655Z AUTO 14002KT 0400 R23/0800N FZFG SCT000 M03/M03 Q1005 TEMPO 0200
  • 091625Z AUTO 15002KT 0200 R23/0300N FZFG VV000 M02/M02 Q1005 NOSIG
  • 091555Z AUTO 23003KT 0200 R23/0250N FZFG OVC000/// M01/M01 Q1005 NOSIG

TAF TAF EHGG
Valide du 09 à 18h jusqu'au 11 à 00h UTC


091721Z 0918/1024 20005KT 0200 FZFG VV000
TEMPO 0918/1009 1200 BCFG BKN002
BECMG 1009/1012 1500 BR BKN003
PROB30 1012/1016 0800 FZFG BKN001
BECMG 1015/1018 1200 BKN002
PROB40 1016/1024 0600 FZFG VV000



MET'MAP, la Météo Aéronautique d'un coup d'oeil ! - Copyright ORBIFLY Décembre 2007 - Disclaimer

ORBIFLY MET'MAP TEAM :

Programmation & Développement : Alexandra Zaïnal
Sur une idée originale de : Baudouin d'Aumeries
Soutien technique & logistique : Manuel Goepfert
Assistance : Marc-Olivier Méhu




SOURCES & CREDITS :

   NOAA